sensor_id;sensor_type;location;lat;lon;timestamp;P1;durP1;ratioP1;P2;durP2;ratioP2
23376;SDS011;14353;46.070;13.222;2022-12-05T00:01:15;2.45;;;2.20;;
23376;SDS011;14353;46.070;13.222;2022-12-05T00:04:11;2.90;;;2.47;;
23376;SDS011;14353;46.070;13.222;2022-12-05T00:06:40;2.50;;;2.00;;
23376;SDS011;14353;46.070;13.222;2022-12-05T00:09:07;3.00;;;2.17;;
23376;SDS011;14353;46.070;13.222;2022-12-05T00:11:35;2.60;;;2.40;;
23376;SDS011;14353;46.070;13.222;2022-12-05T00:14:02;2.38;;;2.17;;
23376;SDS011;14353;46.070;13.222;2022-12-05T00:16:30;3.63;;;2.60;;
23376;SDS011;14353;46.070;13.222;2022-12-05T00:19:02;3.08;;;2.38;;
23376;SDS011;14353;46.070;13.222;2022-12-05T00:21:31;2.67;;;2.27;;
23376;SDS011;14353;46.070;13.222;2022-12-05T00:24:01;2.47;;;2.25;;
23376;SDS011;14353;46.070;13.222;2022-12-05T00:26:29;2.47;;;2.22;;
23376;SDS011;14353;46.070;13.222;2022-12-05T00:28:55;3.03;;;2.50;;
23376;SDS011;14353;46.070;13.222;2022-12-05T00:31:22;2.50;;;2.30;;
23376;SDS011;14353;46.070;13.222;2022-12-05T00:33:48;2.30;;;2.10;;
23376;SDS011;14353;46.070;13.222;2022-12-05T00:36:18;2.78;;;2.22;;
23376;SDS011;14353;46.070;13.222;2022-12-05T00:38:47;2.70;;;2.40;;
23376;SDS011;14353;46.070;13.222;2022-12-05T00:41:22;2.80;;;2.50;;
23376;SDS011;14353;46.070;13.222;2022-12-05T00:46:22;2.60;;;2.00;;
23376;SDS011;14353;46.070;13.222;2022-12-05T00:48:48;2.30;;;2.08;;
23376;SDS011;14353;46.070;13.222;2022-12-05T00:51:17;2.33;;;2.13;;
23376;SDS011;14353;46.070;13.222;2022-12-05T00:53:45;3.13;;;2.45;;
23376;SDS011;14353;46.070;13.222;2022-12-05T00:56:17;2.67;;;2.45;;
23376;SDS011;14353;46.070;13.222;2022-12-05T00:58:44;2.53;;;2.20;;
23376;SDS011;14353;46.070;13.222;2022-12-05T01:01:11;2.40;;;2.20;;
23376;SDS011;14353;46.070;13.222;2022-12-05T01:03:40;2.58;;;2.20;;
23376;SDS011;14353;46.070;13.222;2022-12-05T01:06:07;2.58;;;2.35;;
23376;SDS011;14353;46.070;13.222;2022-12-05T01:08:34;2.47;;;2.28;;
23376;SDS011;14353;46.070;13.222;2022-12-05T01:11:00;2.58;;;2.30;;
23376;SDS011;14353;46.070;13.222;2022-12-05T01:13:33;2.97;;;2.55;;
23376;SDS011;14353;46.070;13.222;2022-12-05T01:16:00;2.50;;;2.30;;
23376;SDS011;14353;46.070;13.222;2022-12-05T01:18:26;2.70;;;2.40;;
23376;SDS011;14353;46.070;13.222;2022-12-05T01:20:52;2.75;;;2.40;;
23376;SDS011;14353;46.070;13.222;2022-12-05T01:23:22;2.60;;;2.40;;
23376;SDS011;14353;46.070;13.222;2022-12-05T01:25:49;2.70;;;2.33;;
23376;SDS011;14353;46.070;13.222;2022-12-05T01:28:18;2.28;;;2.03;;
23376;SDS011;14353;46.070;13.222;2022-12-05T01:30:44;2.38;;;2.17;;
23376;SDS011;14353;46.070;13.222;2022-12-05T01:33:17;2.42;;;2.10;;
23376;SDS011;14353;46.070;13.222;2022-12-05T01:35:43;2.88;;;2.40;;
23376;SDS011;14353;46.070;13.222;2022-12-05T01:38:09;2.60;;;2.20;;
23376;SDS011;14353;46.070;13.222;2022-12-05T01:40:36;2.90;;;2.17;;
23376;SDS011;14353;46.070;13.222;2022-12-05T01:43:02;2.70;;;2.33;;
23376;SDS011;14353;46.070;13.222;2022-12-05T01:45:35;2.63;;;2.10;;
23376;SDS011;14353;46.070;13.222;2022-12-05T01:48:04;2.65;;;2.35;;
23376;SDS011;14353;46.070;13.222;2022-12-05T01:50:34;2.67;;;2.28;;
23376;SDS011;14353;46.070;13.222;2022-12-05T01:53:01;2.60;;;2.40;;
23376;SDS011;14353;46.070;13.222;2022-12-05T01:55:30;2.10;;;1.90;;
23376;SDS011;14353;46.070;13.222;2022-12-05T01:57:56;2.28;;;1.92;;
23376;SDS011;14353;46.070;13.222;2022-12-05T02:00:23;2.58;;;2.08;;
23376;SDS011;14353;46.070;13.222;2022-12-05T02:02:50;2.60;;;2.17;;
23376;SDS011;14353;46.070;13.222;2022-12-05T02:05:27;2.95;;;2.30;;
23376;SDS011;14353;46.070;13.222;2022-12-05T02:07:58;2.35;;;2.00;;
23376;SDS011;14353;46.070;13.222;2022-12-05T02:10:29;2.25;;;2.05;;
23376;SDS011;14353;46.070;13.222;2022-12-05T02:13:04;2.67;;;2.30;;
23376;SDS011;14353;46.070;13.222;2022-12-05T02:15:39;2.67;;;2.28;;
23376;SDS011;14353;46.070;13.222;2022-12-05T02:24:11;2.85;;;2.03;;
23376;SDS011;14353;46.070;13.222;2022-12-05T02:26:55;2.40;;;2.20;;
23376;SDS011;14353;46.070;13.222;2022-12-05T02:34:58;2.30;;;2.10;;
23376;SDS011;14353;46.070;13.222;2022-12-05T02:37:31;2.35;;;2.00;;
23376;SDS011;14353;46.070;13.222;2022-12-05T02:45:43;3.22;;;1.98;;
23376;SDS011;14353;46.070;13.222;2022-12-05T02:48:13;2.80;;;1.98;;
23376;SDS011;14353;46.070;13.222;2022-12-05T02:50:41;3.45;;;1.90;;
23376;SDS011;14353;46.070;13.222;2022-12-05T02:53:14;2.92;;;1.88;;
23376;SDS011;14353;46.070;13.222;2022-12-05T02:55:42;2.08;;;1.88;;
23376;SDS011;14353;46.070;13.222;2022-12-05T02:58:15;2.13;;;1.92;;
23376;SDS011;14353;46.070;13.222;2022-12-05T03:00:45;2.20;;;1.85;;
23376;SDS011;14353;46.070;13.222;2022-12-05T03:03:17;1.92;;;1.80;;
23376;SDS011;14353;46.070;13.222;2022-12-05T03:08:36;2.53;;;2.20;;
23376;SDS011;14353;46.070;13.222;2022-12-05T03:11:07;2.17;;;1.90;;
23376;SDS011;14353;46.070;13.222;2022-12-05T03:13:36;2.17;;;1.98;;
23376;SDS011;14353;46.070;13.222;2022-12-05T03:16:19;2.20;;;2.00;;
23376;SDS011;14353;46.070;13.222;2022-12-05T03:18:59;2.10;;;1.90;;
23376;SDS011;14353;46.070;13.222;2022-12-05T03:21:30;2.33;;;1.80;;
23376;SDS011;14353;46.070;13.222;2022-12-05T03:24:18;2.00;;;1.80;;
23376;SDS011;14353;46.070;13.222;2022-12-05T03:29:30;2.28;;;1.90;;
23376;SDS011;14353;46.070;13.222;2022-12-05T03:41:05;2.25;;;1.90;;
23376;SDS011;14353;46.070;13.222;2022-12-05T03:46:26;2.20;;;1.90;;
23376;SDS011;14353;46.070;13.222;2022-12-05T03:49:03;2.30;;;1.73;;
23376;SDS011;14353;46.070;13.222;2022-12-05T03:51:58;2.03;;;1.70;;
23376;SDS011;14353;46.070;13.222;2022-12-05T03:54:30;2.10;;;1.90;;
23376;SDS011;14353;46.070;13.222;2022-12-05T03:57:01;1.85;;;1.70;;
23376;SDS011;14353;46.070;13.222;2022-12-05T03:59:43;2.03;;;1.90;;
23376;SDS011;14353;46.070;13.222;2022-12-05T04:03:06;2.15;;;1.95;;
23376;SDS011;14353;46.070;13.222;2022-12-05T04:05:29;2.00;;;1.80;;
23376;SDS011;14353;46.070;13.222;2022-12-05T04:08:02;1.92;;;1.73;;
23376;SDS011;14353;46.070;13.222;2022-12-05T04:10:32;2.40;;;1.80;;
23376;SDS011;14353;46.070;13.222;2022-12-05T04:13:14;1.90;;;1.65;;
23376;SDS011;14353;46.070;13.222;2022-12-05T04:15:43;2.17;;;1.85;;
23376;SDS011;14353;46.070;13.222;2022-12-05T04:18:36;2.22;;;2.00;;
23376;SDS011;14353;46.070;13.222;2022-12-05T04:21:06;2.10;;;1.60;;
23376;SDS011;14353;46.070;13.222;2022-12-05T04:23:51;2.58;;;1.90;;
23376;SDS011;14353;46.070;13.222;2022-12-05T04:26:39;2.10;;;1.90;;
23376;SDS011;14353;46.070;13.222;2022-12-05T04:29:18;1.85;;;1.70;;
23376;SDS011;14353;46.070;13.222;2022-12-05T04:31:55;2.05;;;1.77;;
23376;SDS011;14353;46.070;13.222;2022-12-05T04:34:28;2.00;;;1.80;;
23376;SDS011;14353;46.070;13.222;2022-12-05T04:37:01;1.95;;;1.70;;
23376;SDS011;14353;46.070;13.222;2022-12-05T04:40:11;1.70;;;1.60;;
23376;SDS011;14353;46.070;13.222;2022-12-05T04:42:28;1.70;;;1.60;;
23376;SDS011;14353;46.070;13.222;2022-12-05T04:45:06;2.17;;;1.80;;
23376;SDS011;14353;46.070;13.222;2022-12-05T04:47:41;1.73;;;1.55;;
23376;SDS011;14353;46.070;13.222;2022-12-05T04:50:10;1.65;;;1.50;;
23376;SDS011;14353;46.070;13.222;2022-12-05T04:52:41;1.85;;;1.65;;
23376;SDS011;14353;46.070;13.222;2022-12-05T04:55:12;1.90;;;1.60;;
23376;SDS011;14353;46.070;13.222;2022-12-05T05:00:22;1.60;;;1.50;;
23376;SDS011;14353;46.070;13.222;2022-12-05T05:03:07;1.60;;;1.50;;
23376;SDS011;14353;46.070;13.222;2022-12-05T05:05:44;2.13;;;1.75;;
23376;SDS011;14353;46.070;13.222;2022-12-05T05:08:16;1.60;;;1.50;;
23376;SDS011;14353;46.070;13.222;2022-12-05T05:10:51;2.00;;;1.70;;
23376;SDS011;14353;46.070;13.222;2022-12-05T05:13:25;1.65;;;1.50;;
23376;SDS011;14353;46.070;13.222;2022-12-05T05:15:51;1.80;;;1.58;;
23376;SDS011;14353;46.070;13.222;2022-12-05T05:18:19;1.67;;;1.58;;
23376;SDS011;14353;46.070;13.222;2022-12-05T05:20:45;1.52;;;1.42;;
23376;SDS011;14353;46.070;13.222;2022-12-05T05:23:11;2.00;;;1.70;;
23376;SDS011;14353;46.070;13.222;2022-12-05T05:25:39;1.75;;;1.65;;
23376;SDS011;14353;46.070;13.222;2022-12-05T05:28:05;1.73;;;1.50;;
23376;SDS011;14353;46.070;13.222;2022-12-05T05:30:33;1.83;;;1.63;;
23376;SDS011;14353;46.070;13.222;2022-12-05T05:32:59;1.50;;;1.40;;
23376;SDS011;14353;46.070;13.222;2022-12-05T05:35:25;2.47;;;1.50;;
23376;SDS011;14353;46.070;13.222;2022-12-05T05:37:54;1.67;;;1.58;;
23376;SDS011;14353;46.070;13.222;2022-12-05T05:40:19;1.63;;;1.48;;
23376;SDS011;14353;46.070;13.222;2022-12-05T05:42:46;1.73;;;1.52;;
23376;SDS011;14353;46.070;13.222;2022-12-05T05:45:15;1.60;;;1.50;;
23376;SDS011;14353;46.070;13.222;2022-12-05T05:47:43;1.63;;;1.40;;
23376;SDS011;14353;46.070;13.222;2022-12-05T05:50:12;1.83;;;1.35;;
23376;SDS011;14353;46.070;13.222;2022-12-05T05:52:37;1.50;;;1.35;;
23376;SDS011;14353;46.070;13.222;2022-12-05T05:55:04;1.60;;;1.45;;
23376;SDS011;14353;46.070;13.222;2022-12-05T05:57:31;1.45;;;1.33;;
23376;SDS011;14353;46.070;13.222;2022-12-05T05:59:56;1.38;;;1.27;;
23376;SDS011;14353;46.070;13.222;2022-12-05T06:02:22;1.50;;;1.40;;
23376;SDS011;14353;46.070;13.222;2022-12-05T06:04:48;1.75;;;1.35;;
23376;SDS011;14353;46.070;13.222;2022-12-05T06:07:14;2.92;;;1.60;;
23376;SDS011;14353;46.070;13.222;2022-12-05T06:09:40;1.52;;;1.42;;
23376;SDS011;14353;46.070;13.222;2022-12-05T06:12:05;1.63;;;1.38;;
23376;SDS011;14353;46.070;13.222;2022-12-05T06:14:34;1.77;;;1.50;;
23376;SDS011;14353;46.070;13.222;2022-12-05T06:17:02;1.48;;;1.38;;
23376;SDS011;14353;46.070;13.222;2022-12-05T06:19:29;1.50;;;1.40;;
23376;SDS011;14353;46.070;13.222;2022-12-05T06:21:57;1.35;;;1.25;;
23376;SDS011;14353;46.070;13.222;2022-12-05T06:24:25;1.50;;;1.27;;
23376;SDS011;14353;46.070;13.222;2022-12-05T06:26:51;1.85;;;1.30;;
23376;SDS011;14353;46.070;13.222;2022-12-05T06:29:17;2.17;;;1.10;;
23376;SDS011;14353;46.070;13.222;2022-12-05T06:31:42;1.50;;;1.40;;
23376;SDS011;14353;46.070;13.222;2022-12-05T06:34:11;1.38;;;0.95;;
23376;SDS011;14353;46.070;13.222;2022-12-05T06:36:39;1.20;;;1.10;;
23376;SDS011;14353;46.070;13.222;2022-12-05T06:39:15;1.48;;;1.05;;
23376;SDS011;14353;46.070;13.222;2022-12-05T06:41:41;1.13;;;0.88;;
23376;SDS011;14353;46.070;13.222;2022-12-05T06:44:07;1.00;;;0.90;;
23376;SDS011;14353;46.070;13.222;2022-12-05T06:46:34;1.65;;;1.05;;
23376;SDS011;14353;46.070;13.222;2022-12-05T06:49:03;1.25;;;0.88;;
23376;SDS011;14353;46.070;13.222;2022-12-05T06:51:37;1.85;;;1.10;;
23376;SDS011;14353;46.070;13.222;2022-12-05T06:54:03;2.40;;;1.08;;
23376;SDS011;14353;46.070;13.222;2022-12-05T06:56:41;1.98;;;0.90;;
23376;SDS011;14353;46.070;13.222;2022-12-05T06:59:16;4.18;;;1.20;;
23376;SDS011;14353;46.070;13.222;2022-12-05T07:01:54;2.40;;;1.00;;
23376;SDS011;14353;46.070;13.222;2022-12-05T07:08:08;4.32;;;1.20;;
23376;SDS011;14353;46.070;13.222;2022-12-05T07:10:48;3.92;;;1.25;;
23376;SDS011;14353;46.070;13.222;2022-12-05T07:13:44;3.78;;;1.02;;
23376;SDS011;14353;46.070;13.222;2022-12-05T07:19:13;1.90;;;1.20;;
23376;SDS011;14353;46.070;13.222;2022-12-05T07:22:09;2.15;;;1.33;;
23376;SDS011;14353;46.070;13.222;2022-12-05T07:28:13;3.50;;;1.95;;
23376;SDS011;14353;46.070;13.222;2022-12-05T07:33:35;4.03;;;1.65;;
23376;SDS011;14353;46.070;13.222;2022-12-05T07:39:26;4.35;;;1.95;;
23376;SDS011;14353;46.070;13.222;2022-12-05T07:42:03;6.13;;;2.10;;
23376;SDS011;14353;46.070;13.222;2022-12-05T07:44:29;2.13;;;1.50;;
23376;SDS011;14353;46.070;13.222;2022-12-05T07:47:01;6.40;;;1.77;;
23376;SDS011;14353;46.070;13.222;2022-12-05T07:52:19;4.82;;;1.95;;
23376;SDS011;14353;46.070;13.222;2022-12-05T07:54:56;2.78;;;1.70;;
23376;SDS011;14353;46.070;13.222;2022-12-05T07:57:25;6.80;;;2.20;;
23376;SDS011;14353;46.070;13.222;2022-12-05T07:59:57;4.05;;;1.77;;
23376;SDS011;14353;46.070;13.222;2022-12-05T08:03:03;3.53;;;1.73;;
23376;SDS011;14353;46.070;13.222;2022-12-05T08:05:33;3.85;;;1.67;;
23376;SDS011;14353;46.070;13.222;2022-12-05T08:08:05;9.70;;;2.38;;
23376;SDS011;14353;46.070;13.222;2022-12-05T08:11:12;7.82;;;2.30;;
23376;SDS011;14353;46.070;13.222;2022-12-05T08:17:55;4.53;;;1.90;;
23376;SDS011;14353;46.070;13.222;2022-12-05T08:20:22;6.00;;;2.05;;
23376;SDS011;14353;46.070;13.222;2022-12-05T08:23:25;5.05;;;2.10;;
23376;SDS011;14353;46.070;13.222;2022-12-05T08:26:29;8.00;;;2.08;;
23376;SDS011;14353;46.070;13.222;2022-12-05T08:29:11;3.55;;;1.85;;
23376;SDS011;14353;46.070;13.222;2022-12-05T08:32:43;4.78;;;1.95;;
23376;SDS011;14353;46.070;13.222;2022-12-05T08:35:48;4.68;;;2.08;;
23376;SDS011;14353;46.070;13.222;2022-12-05T08:42:05;3.03;;;1.83;;
23376;SDS011;14353;46.070;13.222;2022-12-05T08:45:01;4.20;;;2.13;;
23376;SDS011;14353;46.070;13.222;2022-12-05T08:47:31;4.30;;;2.17;;
23376;SDS011;14353;46.070;13.222;2022-12-05T08:50:07;4.65;;;1.92;;
23376;SDS011;14353;46.070;13.222;2022-12-05T08:53:02;5.18;;;2.25;;
23376;SDS011;14353;46.070;13.222;2022-12-05T08:55:37;4.95;;;2.50;;
23376;SDS011;14353;46.070;13.222;2022-12-05T09:02:14;6.60;;;2.33;;
23376;SDS011;14353;46.070;13.222;2022-12-05T09:08:09;3.70;;;2.13;;
23376;SDS011;14353;46.070;13.222;2022-12-05T09:10:42;4.43;;;2.13;;
23376;SDS011;14353;46.070;13.222;2022-12-05T09:20:17;7.25;;;2.28;;
23376;SDS011;14353;46.070;13.222;2022-12-05T09:23:06;3.35;;;1.83;;
23376;SDS011;14353;46.070;13.222;2022-12-05T09:25:58;7.28;;;2.17;;
23376;SDS011;14353;46.070;13.222;2022-12-05T09:31:45;6.20;;;1.88;;
23376;SDS011;14353;46.070;13.222;2022-12-05T09:34:31;6.07;;;2.15;;
23376;SDS011;14353;46.070;13.222;2022-12-05T09:37:32;5.90;;;2.03;;
23376;SDS011;14353;46.070;13.222;2022-12-05T09:40:05;4.50;;;2.10;;
23376;SDS011;14353;46.070;13.222;2022-12-05T09:42:48;3.03;;;2.00;;
23376;SDS011;14353;46.070;13.222;2022-12-05T09:45:33;3.67;;;1.90;;
23376;SDS011;14353;46.070;13.222;2022-12-05T09:51:11;3.10;;;2.00;;
23376;SDS011;14353;46.070;13.222;2022-12-05T09:53:41;6.32;;;2.10;;
23376;SDS011;14353;46.070;13.222;2022-12-05T09:59:28;3.92;;;2.20;;
23376;SDS011;14353;46.070;13.222;2022-12-05T10:05:52;8.57;;;2.20;;
23376;SDS011;14353;46.070;13.222;2022-12-05T10:08:40;9.57;;;2.35;;
23376;SDS011;14353;46.070;13.222;2022-12-05T10:11:29;12.85;;;2.40;;
23376;SDS011;14353;46.070;13.222;2022-12-05T10:14:17;7.25;;;2.38;;
23376;SDS011;14353;46.070;13.222;2022-12-05T10:20:04;13.73;;;2.90;;
23376;SDS011;14353;46.070;13.222;2022-12-05T10:23:17;5.20;;;2.45;;
23376;SDS011;14353;46.070;13.222;2022-12-05T10:26:01;11.20;;;2.38;;
23376;SDS011;14353;46.070;13.222;2022-12-05T10:31:44;7.20;;;2.90;;
23376;SDS011;14353;46.070;13.222;2022-12-05T10:34:36;13.18;;;3.58;;
23376;SDS011;14353;46.070;13.222;2022-12-05T10:37:23;12.73;;;3.23;;
23376;SDS011;14353;46.070;13.222;2022-12-05T10:40:20;9.80;;;2.95;;
23376;SDS011;14353;46.070;13.222;2022-12-05T10:43:00;12.68;;;3.15;;
23376;SDS011;14353;46.070;13.222;2022-12-05T10:45:49;7.78;;;3.17;;
23376;SDS011;14353;46.070;13.222;2022-12-05T10:48:52;13.30;;;3.58;;
23376;SDS011;14353;46.070;13.222;2022-12-05T10:51:26;9.02;;;3.22;;
23376;SDS011;14353;46.070;13.222;2022-12-05T10:56:49;14.10;;;3.20;;
23376;SDS011;14353;46.070;13.222;2022-12-05T10:59:23;8.27;;;3.08;;
23376;SDS011;14353;46.070;13.222;2022-12-05T11:02:02;11.07;;;3.45;;
23376;SDS011;14353;46.070;13.222;2022-12-05T11:04:43;9.77;;;3.47;;
23376;SDS011;14353;46.070;13.222;2022-12-05T11:07:34;9.48;;;3.22;;
23376;SDS011;14353;46.070;13.222;2022-12-05T11:13:22;20.05;;;3.60;;
23376;SDS011;14353;46.070;13.222;2022-12-05T11:15:55;13.85;;;3.75;;
23376;SDS011;14353;46.070;13.222;2022-12-05T11:18:33;12.57;;;3.20;;
23376;SDS011;14353;46.070;13.222;2022-12-05T11:21:11;15.88;;;3.40;;
23376;SDS011;14353;46.070;13.222;2022-12-05T11:23:48;15.02;;;3.55;;
23376;SDS011;14353;46.070;13.222;2022-12-05T11:26:34;13.32;;;3.35;;
23376;SDS011;14353;46.070;13.222;2022-12-05T11:31:31;10.32;;;3.65;;
23376;SDS011;14353;46.070;13.222;2022-12-05T11:33:59;14.73;;;3.30;;
23376;SDS011;14353;46.070;13.222;2022-12-05T11:36:49;11.70;;;3.05;;
23376;SDS011;14353;46.070;13.222;2022-12-05T11:39:23;17.15;;;3.42;;
23376;SDS011;14353;46.070;13.222;2022-12-05T11:41:53;11.65;;;3.20;;
23376;SDS011;14353;46.070;13.222;2022-12-05T11:50:39;11.43;;;3.42;;
23376;SDS011;14353;46.070;13.222;2022-12-05T12:01:42;11.18;;;3.40;;
23376;SDS011;14353;46.070;13.222;2022-12-05T12:12:45;7.72;;;3.25;;
23376;SDS011;14353;46.070;13.222;2022-12-05T12:21:32;11.20;;;3.50;;
23376;SDS011;14353;46.070;13.222;2022-12-05T12:23:55;8.18;;;3.25;;
23376;SDS011;14353;46.070;13.222;2022-12-05T12:29:30;8.05;;;2.67;;
23376;SDS011;14353;46.070;13.222;2022-12-05T12:38:02;6.45;;;2.40;;
23376;SDS011;14353;46.070;13.222;2022-12-05T12:40:50;9.32;;;2.50;;
23376;SDS011;14353;46.070;13.222;2022-12-05T12:51:47;3.83;;;2.15;;
23376;SDS011;14353;46.070;13.222;2022-12-05T12:54:27;5.28;;;2.30;;
23376;SDS011;14353;46.070;13.222;2022-12-05T13:02:48;7.35;;;2.42;;
23376;SDS011;14353;46.070;13.222;2022-12-05T13:05:38;5.47;;;2.30;;
23376;SDS011;14353;46.070;13.222;2022-12-05T13:08:27;4.70;;;2.20;;
23376;SDS011;14353;46.070;13.222;2022-12-05T13:11:07;5.20;;;2.08;;
23376;SDS011;14353;46.070;13.222;2022-12-05T13:13:35;8.52;;;2.22;;
23376;SDS011;14353;46.070;13.222;2022-12-05T13:16:23;3.92;;;2.15;;
23376;SDS011;14353;46.070;13.222;2022-12-05T13:18:53;7.43;;;2.40;;
23376;SDS011;14353;46.070;13.222;2022-12-05T13:21:20;6.88;;;2.30;;
23376;SDS011;14353;46.070;13.222;2022-12-05T13:23:50;3.60;;;1.95;;
23376;SDS011;14353;46.070;13.222;2022-12-05T13:26:28;4.13;;;2.10;;
23376;SDS011;14353;46.070;13.222;2022-12-05T13:28:59;3.85;;;2.20;;
23376;SDS011;14353;46.070;13.222;2022-12-05T13:31:38;3.10;;;1.80;;
23376;SDS011;14353;46.070;13.222;2022-12-05T13:37:09;4.00;;;1.98;;
23376;SDS011;14353;46.070;13.222;2022-12-05T13:40:00;2.88;;;1.95;;
23376;SDS011;14353;46.070;13.222;2022-12-05T13:42:45;3.00;;;1.75;;
23376;SDS011;14353;46.070;13.222;2022-12-05T13:45:17;3.20;;;1.85;;
23376;SDS011;14353;46.070;13.222;2022-12-05T14:12:45;6.03;;;1.80;;
23376;SDS011;14353;46.070;13.222;2022-12-05T14:20:22;5.03;;;1.70;;
23376;SDS011;14353;46.070;13.222;2022-12-05T14:31:37;5.07;;;1.83;;
23376;SDS011;14353;46.070;13.222;2022-12-05T14:34:24;4.15;;;2.17;;
23376;SDS011;14353;46.070;13.222;2022-12-05T14:36:53;3.05;;;1.60;;
23376;SDS011;14353;46.070;13.222;2022-12-05T14:39:34;2.90;;;1.67;;
23376;SDS011;14353;46.070;13.222;2022-12-05T14:42:15;3.10;;;1.40;;
23376;SDS011;14353;46.070;13.222;2022-12-05T14:45:20;5.00;;;1.98;;
23376;SDS011;14353;46.070;13.222;2022-12-05T14:47:50;2.80;;;1.67;;
23376;SDS011;14353;46.070;13.222;2022-12-05T14:58:45;5.38;;;1.63;;
23376;SDS011;14353;46.070;13.222;2022-12-05T15:01:14;2.15;;;1.48;;
23376;SDS011;14353;46.070;13.222;2022-12-05T15:07:11;5.63;;;1.85;;
23376;SDS011;14353;46.070;13.222;2022-12-05T15:12:18;6.80;;;1.98;;
23376;SDS011;14353;46.070;13.222;2022-12-05T15:17:54;5.57;;;2.38;;
23376;SDS011;14353;46.070;13.222;2022-12-05T15:20:48;5.43;;;2.30;;
23376;SDS011;14353;46.070;13.222;2022-12-05T15:26:04;5.05;;;2.17;;
23376;SDS011;14353;46.070;13.222;2022-12-05T15:28:40;4.43;;;2.13;;
23376;SDS011;14353;46.070;13.222;2022-12-05T15:31:48;7.15;;;2.63;;
23376;SDS011;14353;46.070;13.222;2022-12-05T15:34:20;6.10;;;2.75;;
23376;SDS011;14353;46.070;13.222;2022-12-05T15:39:55;5.88;;;2.25;;
23376;SDS011;14353;46.070;13.222;2022-12-05T15:42:35;6.70;;;2.20;;
23376;SDS011;14353;46.070;13.222;2022-12-05T15:47:42;6.65;;;2.58;;
23376;SDS011;14353;46.070;13.222;2022-12-05T15:50:19;7.35;;;2.78;;
23376;SDS011;14353;46.070;13.222;2022-12-05T15:52:56;6.05;;;2.65;;
23376;SDS011;14353;46.070;13.222;2022-12-05T15:55:28;8.88;;;2.72;;
23376;SDS011;14353;46.070;13.222;2022-12-05T16:00:51;7.10;;;2.67;;
23376;SDS011;14353;46.070;13.222;2022-12-05T16:03:21;6.32;;;2.80;;
23376;SDS011;14353;46.070;13.222;2022-12-05T16:08:27;6.13;;;2.65;;
23376;SDS011;14353;46.070;13.222;2022-12-05T16:11:10;7.03;;;2.50;;
23376;SDS011;14353;46.070;13.222;2022-12-05T16:13:41;7.10;;;3.33;;
23376;SDS011;14353;46.070;13.222;2022-12-05T16:16:28;7.80;;;2.85;;
23376;SDS011;14353;46.070;13.222;2022-12-05T16:19:03;6.93;;;2.92;;
23376;SDS011;14353;46.070;13.222;2022-12-05T16:21:46;6.00;;;2.72;;
23376;SDS011;14353;46.070;13.222;2022-12-05T16:24:38;5.53;;;2.65;;
23376;SDS011;14353;46.070;13.222;2022-12-05T16:27:19;7.82;;;2.42;;
23376;SDS011;14353;46.070;13.222;2022-12-05T16:32:47;5.15;;;2.90;;
23376;SDS011;14353;46.070;13.222;2022-12-05T16:35:25;5.13;;;2.60;;
23376;SDS011;14353;46.070;13.222;2022-12-05T16:40:29;8.40;;;2.70;;
23376;SDS011;14353;46.070;13.222;2022-12-05T16:43:05;5.38;;;2.67;;
23376;SDS011;14353;46.070;13.222;2022-12-05T16:45:44;5.50;;;2.55;;
23376;SDS011;14353;46.070;13.222;2022-12-05T16:51:31;5.20;;;2.60;;
23376;SDS011;14353;46.070;13.222;2022-12-05T16:53:41;6.25;;;2.50;;
23376;SDS011;14353;46.070;13.222;2022-12-05T16:56:13;6.68;;;2.90;;
23376;SDS011;14353;46.070;13.222;2022-12-05T16:58:42;6.38;;;2.88;;
23376;SDS011;14353;46.070;13.222;2022-12-05T17:01:17;5.00;;;3.42;;
23376;SDS011;14353;46.070;13.222;2022-12-05T17:03:45;6.60;;;2.83;;
23376;SDS011;14353;46.070;13.222;2022-12-05T17:06:15;9.02;;;3.00;;
23376;SDS011;14353;46.070;13.222;2022-12-05T17:08:42;5.57;;;3.10;;
23376;SDS011;14353;46.070;13.222;2022-12-05T17:11:14;6.53;;;3.08;;
23376;SDS011;14353;46.070;13.222;2022-12-05T17:13:44;5.75;;;3.30;;
23376;SDS011;14353;46.070;13.222;2022-12-05T17:16:12;5.50;;;3.22;;
23376;SDS011;14353;46.070;13.222;2022-12-05T17:18:42;8.57;;;3.25;;
23376;SDS011;14353;46.070;13.222;2022-12-05T17:21:10;7.35;;;3.38;;
23376;SDS011;14353;46.070;13.222;2022-12-05T17:23:43;7.72;;;3.67;;
23376;SDS011;14353;46.070;13.222;2022-12-05T17:26:14;6.65;;;3.72;;
23376;SDS011;14353;46.070;13.222;2022-12-05T17:28:44;5.25;;;3.42;;
23376;SDS011;14353;46.070;13.222;2022-12-05T17:31:21;8.15;;;3.40;;
23376;SDS011;14353;46.070;13.222;2022-12-05T17:33:48;6.10;;;3.95;;
23376;SDS011;14353;46.070;13.222;2022-12-05T17:36:15;8.65;;;3.45;;
23376;SDS011;14353;46.070;13.222;2022-12-05T17:38:41;7.32;;;3.80;;
23376;SDS011;14353;46.070;13.222;2022-12-05T17:41:15;8.52;;;3.72;;
23376;SDS011;14353;46.070;13.222;2022-12-05T17:43:43;7.05;;;4.03;;
23376;SDS011;14353;46.070;13.222;2022-12-05T17:46:16;9.57;;;4.50;;
23376;SDS011;14353;46.070;13.222;2022-12-05T17:48:44;7.05;;;3.78;;
23376;SDS011;14353;46.070;13.222;2022-12-05T17:51:10;6.95;;;4.40;;
23376;SDS011;14353;46.070;13.222;2022-12-05T17:53:39;5.90;;;3.67;;
23376;SDS011;14353;46.070;13.222;2022-12-05T17:56:06;8.90;;;3.92;;
23376;SDS011;14353;46.070;13.222;2022-12-05T17:58:32;8.02;;;3.80;;
23376;SDS011;14353;46.070;13.222;2022-12-05T18:00:58;9.25;;;3.83;;
23376;SDS011;14353;46.070;13.222;2022-12-05T18:03:31;8.32;;;3.95;;
23376;SDS011;14353;46.070;13.222;2022-12-05T18:05:57;6.63;;;3.92;;
23376;SDS011;14353;46.070;13.222;2022-12-05T18:08:23;6.55;;;3.85;;
23376;SDS011;14353;46.070;13.222;2022-12-05T18:10:49;7.45;;;3.88;;
23376;SDS011;14353;46.070;13.222;2022-12-05T18:13:15;4.35;;;3.50;;
23376;SDS011;14353;46.070;13.222;2022-12-05T18:15:42;5.90;;;3.90;;
23376;SDS011;14353;46.070;13.222;2022-12-05T18:18:10;6.22;;;4.13;;
23376;SDS011;14353;46.070;13.222;2022-12-05T18:20:39;6.75;;;4.20;;
23376;SDS011;14353;46.070;13.222;2022-12-05T18:23:04;6.45;;;4.00;;
23376;SDS011;14353;46.070;13.222;2022-12-05T18:25:30;6.78;;;3.88;;
23376;SDS011;14353;46.070;13.222;2022-12-05T18:27:59;8.73;;;3.97;;
23376;SDS011;14353;46.070;13.222;2022-12-05T18:30:25;7.63;;;3.80;;
23376;SDS011;14353;46.070;13.222;2022-12-05T18:32:53;9.52;;;3.60;;
23376;SDS011;14353;46.070;13.222;2022-12-05T18:35:24;6.90;;;3.60;;
23376;SDS011;14353;46.070;13.222;2022-12-05T18:38:06;9.48;;;3.80;;
23376;SDS011;14353;46.070;13.222;2022-12-05T18:40:32;6.38;;;4.05;;
23376;SDS011;14353;46.070;13.222;2022-12-05T18:42:58;6.43;;;3.92;;
23376;SDS011;14353;46.070;13.222;2022-12-05T18:45:24;4.45;;;3.42;;
23376;SDS011;14353;46.070;13.222;2022-12-05T18:47:50;5.88;;;4.18;;
23376;SDS011;14353;46.070;13.222;2022-12-05T18:50:16;7.15;;;4.00;;
23376;SDS011;14353;46.070;13.222;2022-12-05T18:52:42;5.28;;;3.67;;
23376;SDS011;14353;46.070;13.222;2022-12-05T18:55:08;8.45;;;4.28;;
23376;SDS011;14353;46.070;13.222;2022-12-05T18:57:34;7.20;;;4.00;;
23376;SDS011;14353;46.070;13.222;2022-12-05T19:00:00;5.72;;;3.80;;
23376;SDS011;14353;46.070;13.222;2022-12-05T19:02:26;6.72;;;3.92;;
23376;SDS011;14353;46.070;13.222;2022-12-05T19:04:53;7.20;;;3.80;;
23376;SDS011;14353;46.070;13.222;2022-12-05T19:07:18;4.35;;;3.50;;
23376;SDS011;14353;46.070;13.222;2022-12-05T19:09:44;6.97;;;3.55;;
23376;SDS011;14353;46.070;13.222;2022-12-05T19:12:13;4.82;;;3.83;;
23376;SDS011;14353;46.070;13.222;2022-12-05T19:14:38;4.63;;;3.40;;
23376;SDS011;14353;46.070;13.222;2022-12-05T19:17:04;5.75;;;3.60;;